Time;durP1;ratioP1;P1;durP2;ratioP2;P2;SDS_P1;SDS_P2;PMS_P1;PMS_P2;Temp;Humidity;BMP_temperature;BMP_pressure;BME280_temperature;BME280_humidity;BME280_pressure;Samples;Min_cycle;Max_cycle;Signal;HPM_P1;HPM_P2
2023/06/10 00:00:06;;;;;;;21.85;11.05;;;;;;;19.75;100.00;101038.31;5005316;28;20053;-74
2023/06/10 00:02:33;;;;;;;22.92;11.82;;;;;;;19.73;100.00;101041.59;5003304;28;20060;-75
2023/06/10 00:05:00;;;;;;;18.60;11.25;;;;;;;19.71;100.00;101040.47;5022976;28;20060;-74
2023/06/10 00:07:26;;;;;;;19.55;11.45;;;;;;;19.69;100.00;101040.19;5030671;28;20050;-74
2023/06/10 00:09:53;;;;;;;20.30;11.35;;;;;;;19.68;100.00;101033.75;5015185;28;20130;-73
2023/06/10 00:12:20;;;;;;;19.67;11.32;;;;;;;19.65;100.00;101033.94;5004749;28;20073;-75
2023/06/10 00:14:49;;;;;;;16.83;9.95;;;;;;;19.62;100.00;101040.50;5008757;28;20512;-73
2023/06/10 00:17:16;;;;;;;16.70;10.13;;;;;;;19.59;100.00;101036.59;5006147;28;20057;-75
2023/06/10 00:19:43;;;;;;;17.83;10.07;;;;;;;19.58;100.00;101049.13;5023751;28;20141;-74
2023/06/10 00:22:10;;;;;;;21.15;10.23;;;;;;;19.55;100.00;101046.47;5008074;28;20163;-76
2023/06/10 00:24:37;;;;;;;17.73;10.32;;;;;;;19.51;100.00;101046.63;5005807;28;20054;-72
2023/06/10 00:27:06;;;;;;;19.15;10.63;;;;;;;19.48;100.00;101044.75;5010460;28;20475;-75
2023/06/10 00:29:33;;;;;;;17.92;10.57;;;;;;;19.44;100.00;101052.56;4998105;28;20095;-75
2023/06/10 00:32:00;;;;;;;16.77;10.15;;;;;;;19.34;100.00;101038.94;5018582;28;20107;-72
2023/06/10 00:34:26;;;;;;;18.83;10.13;;;;;;;19.28;100.00;101043.63;5007313;28;20884;-75
2023/06/10 00:36:53;;;;;;;19.48;10.57;;;;;;;19.23;100.00;101039.41;5006585;28;20070;-75
2023/06/10 00:39:19;;;;;;;18.70;10.50;;;;;;;19.22;100.00;101042.69;5009218;28;20464;-75
2023/06/10 00:41:46;;;;;;;16.40;10.52;;;;;;;19.20;100.00;101053.63;5009023;28;20572;-74
2023/06/10 00:44:12;;;;;;;18.08;10.63;;;;;;;19.15;100.00;101040.19;5007526;28;20045;-76
2023/06/10 00:46:39;;;;;;;18.42;10.95;;;;;;;19.13;100.00;101045.50;5001241;28;20153;-74
2023/06/10 00:49:06;;;;;;;18.67;11.05;;;;;;;19.06;100.00;101040.97;5012741;28;20041;-73
2023/06/10 00:51:33;;;;;;;17.35;10.82;;;;;;;19.04;100.00;101053.97;5001474;28;20053;-75
2023/06/10 00:53:59;;;;;;;18.50;10.88;;;;;;;19.02;100.00;101056.44;5004097;28;20154;-74
2023/06/10 00:56:26;;;;;;;19.23;12.27;;;;;;;18.98;100.00;101050.97;5014087;28;20124;-74
2023/06/10 00:58:53;;;;;;;19.88;11.52;;;;;;;18.93;100.00;101050.78;5006179;28;20469;-75
2023/06/10 01:01:20;;;;;;;20.48;12.23;;;;;;;18.94;100.00;101049.56;5011425;28;20100;-75
2023/06/10 01:03:47;;;;;;;22.25;12.15;;;;;;;18.91;100.00;101045.63;5001669;28;20769;-72
2023/06/10 01:06:49;;;;;;;20.73;12.35;;;;;;;18.89;100.00;101050.16;5005767;28;20205;-73
2023/06/10 01:09:45;;;;;;;17.88;11.50;;;;;;;18.88;100.00;101051.41;5005183;28;20500;-73
2023/06/10 01:12:19;;;;;;;24.00;12.57;;;;;;;18.84;100.00;101048.72;5006007;28;20053;-74
2023/06/10 01:14:48;;;;;;;22.65;11.93;;;;;;;18.81;100.00;101046.88;5009472;28;20103;-75
2023/06/10 01:17:16;;;;;;;20.30;12.20;;;;;;;18.83;100.00;101055.63;5018131;28;20058;-74
2023/06/10 01:19:44;;;;;;;21.13;11.57;;;;;;;18.81;100.00;101054.53;5005284;28;20136;-75
2023/06/10 01:22:15;;;;;;;18.83;11.60;;;;;;;18.78;100.00;101052.66;5000592;28;20058;-74
2023/06/10 01:24:43;;;;;;;20.63;10.75;;;;;;;18.73;100.00;101054.03;5000221;28;20056;-75
2023/06/10 01:27:15;;;;;;;21.30;12.23;;;;;;;18.67;100.00;101052.28;5005267;28;20065;-75
2023/06/10 01:29:46;;;;;;;21.35;12.57;;;;;;;18.63;100.00;101051.66;5005764;28;20052;-75
2023/06/10 01:32:28;;;;;;;20.35;11.65;;;;;;;18.62;100.00;101056.50;5005801;28;20165;-75
2023/06/10 01:34:57;;;;;;;22.20;12.57;;;;;;;18.57;100.00;101056.31;5009160;28;20049;-75
2023/06/10 01:37:26;;;;;;;19.70;12.50;;;;;;;18.58;100.00;101055.06;5025600;28;20474;-75
2023/06/10 01:39:56;;;;;;;21.00;12.07;;;;;;;18.57;100.00;101047.88;5020643;28;20496;-74
2023/06/10 01:42:23;;;;;;;21.23;12.43;;;;;;;18.56;100.00;101055.53;5007713;28;20578;-74
2023/06/10 01:44:50;;;;;;;19.45;12.55;;;;;;;18.55;100.00;101053.97;5006924;28;20209;-74
2023/06/10 01:47:17;;;;;;;18.17;11.32;;;;;;;18.50;100.00;101048.94;5013646;28;20053;-73
2023/06/10 01:49:44;;;;;;;19.35;12.05;;;;;;;18.48;100.00;101053.47;5012315;28;20702;-73
2023/06/10 01:52:10;;;;;;;19.27;12.43;;;;;;;18.45;100.00;101048.75;5005407;28;20045;-73
2023/06/10 01:54:37;;;;;;;20.02;12.27;;;;;;;18.42;100.00;101044.84;5000686;28;20116;-73
2023/06/10 01:57:06;;;;;;;20.92;12.43;;;;;;;18.37;100.00;101048.28;5011519;28;20049;-72
2023/06/10 01:59:32;;;;;;;20.25;12.68;;;;;;;18.40;100.00;101066.25;5004513;28;20045;-73
2023/06/10 02:01:59;;;;;;;21.40;13.25;;;;;;;18.39;100.00;101056.25;5003027;28;20151;-70
2023/06/10 02:04:25;;;;;;;18.00;11.70;;;;;;;18.36;100.00;101063.56;5012954;28;20081;-73
2023/06/10 02:06:53;;;;;;;21.17;12.30;;;;;;;18.32;100.00;101057.31;5003638;28;20107;-72
2023/06/10 02:09:19;;;;;;;22.30;12.23;;;;;;;18.31;100.00;101055.75;5006128;28;20081;-72
2023/06/10 02:11:46;;;;;;;21.38;12.07;;;;;;;18.31;100.00;101055.75;5005562;28;20081;-73
2023/06/10 02:14:12;;;;;;;20.23;12.35;;;;;;;18.27;100.00;101054.31;5005923;28;20744;-73
2023/06/10 02:16:39;;;;;;;19.58;12.00;;;;;;;18.26;100.00;101053.53;5000161;28;20049;-72
2023/06/10 02:19:06;;;;;;;19.75;11.80;;;;;;;18.23;100.00;101053.69;5006459;28;20412;-73
2023/06/10 02:21:34;;;;;;;21.33;13.52;;;;;;;18.23;100.00;101062.13;5002144;28;20046;-74
2023/06/10 02:24:01;;;;;;;21.40;12.00;;;;;;;18.24;100.00;101058.84;5011005;28;20054;-72
2023/06/10 02:26:27;;;;;;;21.98;11.90;;;;;;;18.25;100.00;101056.78;5023071;28;20058;-74
2023/06/10 02:28:54;;;;;;;18.75;11.77;;;;;;;18.23;100.00;101054.44;5021970;28;20049;-74
2023/06/10 02:31:21;;;;;;;20.05;11.73;;;;;;;18.23;100.00;101067.75;5005723;28;20104;-74
2023/06/10 02:33:48;;;;;;;19.92;11.73;;;;;;;18.22;100.00;101074.59;5007489;28;20053;-73
2023/06/10 02:36:15;;;;;;;20.15;12.88;;;;;;;18.18;100.00;101059.91;5005776;28;20058;-73
2023/06/10 02:38:42;;;;;;;19.73;13.02;;;;;;;18.14;100.00;101054.41;5002134;28;20056;-73
2023/06/10 02:41:09;;;;;;;20.50;12.13;;;;;;;18.12;100.00;101061.75;5004224;28;20050;-68
2023/06/10 02:43:35;;;;;;;21.58;12.20;;;;;;;18.07;100.00;101067.97;5011157;28;20081;-73
2023/06/10 02:46:02;;;;;;;21.88;11.30;;;;;;;18.03;100.00;101067.31;5015490;28;20101;-74
2023/06/10 02:48:28;;;;;;;19.05;12.20;;;;;;;18.00;100.00;101066.22;5020887;28;20049;-69
2023/06/10 02:50:55;;;;;;;22.05;11.80;;;;;;;18.01;100.00;101067.00;5013324;28;20077;-74
2023/06/10 02:53:22;;;;;;;21.83;12.77;;;;;;;17.96;100.00;101071.19;5014442;28;20060;-73
2023/06/10 02:55:48;;;;;;;20.92;12.35;;;;;;;17.89;100.00;101070.66;5011246;28;20072;-73
2023/06/10 02:58:15;;;;;;;19.13;11.32;;;;;;;17.84;100.00;101069.22;5009107;28;20046;-74
2023/06/10 03:00:43;;;;;;;19.35;11.70;;;;;;;17.82;100.00;101073.75;5003217;28;20050;-73
2023/06/10 03:03:10;;;;;;;20.60;12.30;;;;;;;17.76;100.00;101067.13;5012730;28;20045;-73
2023/06/10 03:05:37;;;;;;;19.85;12.02;;;;;;;17.72;100.00;101074.91;5010064;28;20104;-74
2023/06/10 03:08:03;;;;;;;20.63;11.60;;;;;;;17.70;100.00;101074.56;5006147;28;20177;-71
2023/06/10 03:10:32;;;;;;;21.58;11.90;;;;;;;17.67;100.00;101069.88;4996685;28;20038;-73
2023/06/10 03:12:59;;;;;;;20.17;12.30;;;;;;;17.57;100.00;101065.41;5006547;28;20057;-74
2023/06/10 03:15:26;;;;;;;22.15;11.95;;;;;;;17.61;100.00;101080.16;5009657;28;20050;-73
2023/06/10 03:17:52;;;;;;;22.48;12.23;;;;;;;17.59;100.00;101071.38;5010616;28;20583;-74
2023/06/10 03:20:19;;;;;;;21.52;12.02;;;;;;;17.57;100.00;101071.03;5019827;28;20057;-74
2023/06/10 03:22:45;;;;;;;18.52;11.57;;;;;;;17.54;100.00;101075.56;5009674;28;20074;-73
2023/06/10 03:25:13;;;;;;;20.55;12.18;;;;;;;17.49;100.00;101076.16;5008689;28;20050;-72
2023/06/10 03:27:42;;;;;;;19.52;11.95;;;;;;;17.45;100.00;101071.91;5016807;28;20137;-72
2023/06/10 03:30:09;;;;;;;19.35;11.00;;;;;;;17.45;100.00;101071.91;5024449;28;20049;-73
2023/06/10 03:32:36;;;;;;;21.05;11.05;;;;;;;17.43;100.00;101078.75;5006305;28;20508;-73
2023/06/10 03:35:03;;;;;;;20.83;10.82;;;;;;;17.39;100.00;101082.94;5012152;28;20076;-74
2023/06/10 03:37:30;;;;;;;18.63;11.20;;;;;;;17.34;100.00;101077.88;5008726;28;20406;-72
2023/06/10 03:39:56;;;;;;;21.15;11.25;;;;;;;17.39;100.00;101088.56;5016720;28;20077;-75
2023/06/10 03:42:23;;;;;;;21.05;11.48;;;;;;;17.39;100.00;101089.31;5018531;28;20069;-75
2023/06/10 03:44:49;;;;;;;19.25;10.93;;;;;;;17.38;100.00;101089.78;5008874;28;20140;-76
2023/06/10 03:47:16;;;;;;;22.00;10.40;;;;;;;17.40;100.00;101092.94;5007609;28;20054;-73
2023/06/10 03:49:42;;;;;;;19.17;10.02;;;;;;;17.31;100.00;101079.59;5002563;28;20096;-73
2023/06/10 03:52:09;;;;;;;20.73;10.73;;;;;;;17.34;100.00;101091.94;5005922;28;20060;-75
2023/06/10 03:54:36;;;;;;;22.60;10.18;;;;;;;17.31;100.00;101093.63;5006050;28;20045;-75
2023/06/10 03:57:03;;;;;;;17.35;9.95;;;;;;;17.30;100.00;101092.06;5008550;28;20053;-72
2023/06/10 03:59:29;;;;;;;18.33;9.50;;;;;;;17.32;100.00;101098.00;5008412;28;20642;-74
2023/06/10 04:01:56;;;;;;;19.85;9.90;;;;;;;17.32;100.00;101092.38;5007601;28;20050;-73
2023/06/10 04:04:23;;;;;;;18.98;9.90;;;;;;;17.31;100.00;101099.25;5005842;28;20789;-75
2023/06/10 04:06:49;;;;;;;21.05;9.70;;;;;;;17.30;100.00;101094.09;5004271;28;20681;-74
2023/06/10 04:09:16;;;;;;;18.48;9.73;;;;;;;17.30;100.00;101092.06;5022812;28;20797;-76
2023/06/10 04:11:42;;;;;;;20.38;9.80;;;;;;;17.30;100.00;101086.47;5007602;28;20504;-74
2023/06/10 04:14:09;;;;;;;19.48;9.48;;;;;;;17.29;100.00;101090.47;5008267;28;20107;-74
2023/06/10 04:16:35;;;;;;;17.83;9.63;;;;;;;17.33;100.00;101096.00;5008808;28;20089;-74
2023/06/10 04:19:02;;;;;;;19.05;9.10;;;;;;;17.31;100.00;101088.00;5007563;28;20060;-71
2023/06/10 04:21:29;;;;;;;20.80;8.90;;;;;;;17.34;100.00;101100.38;5018240;28;20053;-75
2023/06/10 04:23:55;;;;;;;18.55;9.43;;;;;;;17.32;100.00;101100.81;5012136;28;20397;-72
2023/06/10 04:26:22;;;;;;;18.92;9.35;;;;;;;17.29;100.00;101104.53;5005406;28;20084;-72
2023/06/10 04:28:49;;;;;;;21.10;9.73;;;;;;;17.31;100.00;101115.31;5006434;28;20116;-75
2023/06/10 04:31:15;;;;;;;17.75;9.77;;;;;;;17.28;100.00;101114.22;5000494;28;20101;-74
2023/06/10 04:33:42;;;;;;;18.00;8.55;;;;;;;17.31;100.00;101120.94;5015632;28;20160;-70
2023/06/10 04:36:08;;;;;;;18.00;9.35;;;;;;;17.31;100.00;101120.94;5011738;28;20104;-72
2023/06/10 04:38:35;;;;;;;26.85;10.10;;;;;;;17.32;100.00;101116.91;5008345;28;20523;-76
2023/06/10 04:41:02;;;;;;;19.00;9.07;;;;;;;17.36;100.00;101114.75;5014812;28;20136;-73
2023/06/10 04:43:30;;;;;;;17.63;8.77;;;;;;;17.36;100.00;101120.38;5011279;28;20068;-74
2023/06/10 04:45:57;;;;;;;19.55;9.30;;;;;;;17.39;100.00;101119.47;5007483;28;20976;-76
2023/06/10 04:48:26;;;;;;;18.75;9.27;;;;;;;17.34;100.00;101123.66;5015715;28;20080;-74
2023/06/10 04:50:52;;;;;;;16.38;8.95;;;;;;;17.39;100.00;101122.28;5010478;28;20088;-74
2023/06/10 04:53:20;;;;;;;17.77;9.02;;;;;;;17.43;100.00;101115.28;5022698;28;20140;-75
2023/06/10 04:55:46;;;;;;;18.63;9.55;;;;;;;17.43;100.00;101115.28;5007995;28;20050;-74
2023/06/10 04:58:13;;;;;;;17.30;8.80;;;;;;;17.51;100.00;101117.88;5005429;28;20131;-76
2023/06/10 05:00:39;;;;;;;18.77;9.15;;;;;;;17.50;100.00;101116.28;5004958;28;20081;-75
2023/06/10 05:03:06;;;;;;;19.00;8.93;;;;;;;17.55;100.00;101121.34;5009431;28;20466;-74
2023/06/10 05:05:33;;;;;;;20.77;10.43;;;;;;;17.59;100.00;101117.16;4999502;28;20045;-75
2023/06/10 05:07:59;;;;;;;18.10;8.65;;;;;;;17.60;100.00;101120.72;5008388;28;20057;-75
2023/06/10 05:10:26;;;;;;;17.48;8.68;;;;;;;17.61;100.00;101119.50;5007045;28;20099;-74
2023/06/10 05:12:52;;;;;;;17.42;8.63;;;;;;;17.63;100.00;101120.63;5012807;28;20152;-74
2023/06/10 05:15:19;;;;;;;20.13;9.18;;;;;;;17.68;100.00;101117.22;5008926;28;20164;-74
2023/06/10 05:17:45;;;;;;;16.38;8.65;;;;;;;17.71;100.00;101126.75;5012100;28;20114;-74
2023/06/10 05:20:13;;;;;;;20.20;10.18;;;;;;;17.76;100.00;101117.75;5009464;28;20038;-74
2023/06/10 05:22:40;;;;;;;21.05;9.65;;;;;;;17.85;100.00;101123.44;5015498;28;20045;-74
2023/06/10 05:25:07;;;;;;;20.30;8.40;;;;;;;17.89;100.00;101122.06;5004032;28;20054;-71
2023/06/10 05:27:34;;;;;;;19.17;8.85;;;;;;;17.96;100.00;101130.25;5003042;28;20064;-74
2023/06/10 05:30:02;;;;;;;17.92;7.50;;;;;;;17.98;100.00;101124.16;5020524;28;20077;-73
2023/06/10 05:32:28;;;;;;;17.20;8.27;;;;;;;18.03;100.00;101121.56;5002436;28;20057;-73
2023/06/10 05:34:55;;;;;;;16.05;8.48;;;;;;;18.09;100.00;101124.56;5007413;28;20050;-72
2023/06/10 05:37:21;;;;;;;16.88;8.40;;;;;;;18.09;100.00;101119.72;5010890;28;20622;-70
2023/06/10 05:39:48;;;;;;;16.15;8.20;;;;;;;18.20;100.00;101122.13;5004178;28;20045;-74
2023/06/10 05:42:14;;;;;;;15.55;8.25;;;;;;;18.21;100.00;101127.31;5007800;28;20053;-73
2023/06/10 05:44:41;;;;;;;18.33;8.82;;;;;;;18.25;100.00;101129.97;5006623;28;20472;-73
2023/06/10 05:47:07;;;;;;;17.38;9.18;;;;;;;18.27;100.00;101125.47;5007229;28;20152;-72
2023/06/10 05:49:34;;;;;;;17.48;8.25;;;;;;;18.37;100.00;101129.13;5011310;28;20046;-73
2023/06/10 05:52:01;;;;;;;19.85;8.73;;;;;;;18.44;100.00;101131.66;5006802;28;20052;-72
2023/06/10 05:54:27;;;;;;;20.90;9.43;;;;;;;18.49;100.00;101123.38;5005577;28;20741;-72
2023/06/10 05:56:55;;;;;;;19.00;8.45;;;;;;;18.53;100.00;101126.06;5007343;28;20511;-73
2023/06/10 05:59:22;;;;;;;16.80;8.65;;;;;;;18.60;100.00;101132.19;5014086;28;20057;-72
2023/06/10 06:01:52;;;;;;;19.58;9.48;;;;;;;18.66;100.00;101135.97;5005892;28;20049;-73
2023/06/10 06:04:19;;;;;;;17.58;8.65;;;;;;;18.75;100.00;101138.88;5004642;28;20046;-74
2023/06/10 06:06:45;;;;;;;16.92;8.18;;;;;;;18.79;100.00;101133.88;5011349;28;20072;-74
2023/06/10 06:09:12;;;;;;;17.02;8.07;;;;;;;18.86;100.00;101135.59;5009372;28;20073;-72
2023/06/10 06:11:39;;;;;;;17.17;7.32;;;;;;;18.93;100.00;101135.31;5005955;28;20125;-76
2023/06/10 06:14:05;;;;;;;17.63;7.13;;;;;;;18.98;100.00;101137.53;5004321;28;20508;-73
2023/06/10 06:16:33;;;;;;;17.23;7.53;;;;;;;19.04;100.00;101135.66;5016321;28;20068;-73
2023/06/10 06:18:59;;;;;;;18.58;8.10;;;;;;;19.10;100.00;101136.59;5020294;28;20120;-69
2023/06/10 06:21:26;;;;;;;18.63;7.40;;;;;;;19.14;100.00;101137.25;5009232;28;20089;-73
2023/06/10 06:23:52;;;;;;;15.85;7.40;;;;;;;19.23;100.00;101134.44;5008985;28;20052;-73
2023/06/10 06:26:19;;;;;;;22.13;7.55;;;;;;;19.28;100.00;101136.66;5008466;28;20462;-71
2023/06/10 06:28:46;;;;;;;15.65;8.15;;;;;;;19.39;100.00;101134.94;5011159;28;20372;-71
2023/06/10 06:31:12;;;;;;;17.90;7.10;;;;;;;19.44;100.00;101139.16;5024130;28;20103;-71
2023/06/10 06:33:39;;;;;;;15.45;7.65;;;;;;;19.49;100.00;101130.13;5014979;28;20082;-70
2023/06/10 06:36:06;;;;;;;15.50;7.53;;;;;;;19.56;100.00;101138.28;5010984;28;20153;-72
2023/06/10 06:38:33;;;;;;;16.10;6.40;;;;;;;19.65;100.00;101138.28;4997969;28;20054;-71
2023/06/10 06:41:03;;;;;;;15.25;6.95;;;;;;;19.70;100.00;101135.63;4999829;28;20050;-69
2023/06/10 06:43:32;;;;;;;19.98;7.82;;;;;;;19.76;100.00;101141.41;5005198;28;20046;-70
2023/06/10 06:45:59;;;;;;;17.98;7.13;;;;;;;19.86;100.00;101134.50;5006261;28;20061;-71
2023/06/10 06:48:26;;;;;;;15.30;6.47;;;;;;;20.00;100.00;101136.69;5010896;28;21059;-71
2023/06/10 06:50:52;;;;;;;13.80;6.32;;;;;;;20.10;100.00;101143.88;5011300;28;20093;-72
2023/06/10 06:53:19;;;;;;;16.13;6.90;;;;;;;20.20;100.00;101139.00;5011616;28;20136;-73
2023/06/10 06:55:45;;;;;;;13.90;6.28;;;;;;;20.27;100.00;101150.78;5012500;28;20045;-71
2023/06/10 06:58:12;;;;;;;15.60;6.93;;;;;;;20.36;100.00;101147.94;5012357;28;20076;-71
2023/06/10 07:00:38;;;;;;;14.02;5.82;;;;;;;20.45;100.00;101145.09;5008182;28;20041;-74
2023/06/10 07:03:05;;;;;;;16.35;6.20;;;;;;;20.59;100.00;101154.94;5008624;28;20057;-72
2023/06/10 07:05:32;;;;;;;20.58;7.43;;;;;;;20.66;100.00;101149.72;5012429;28;20136;-71
2023/06/10 07:07:58;;;;;;;15.02;6.72;;;;;;;20.74;100.00;101147.34;5013711;28;20045;-73
2023/06/10 07:10:26;;;;;;;15.32;6.32;;;;;;;20.80;100.00;101154.69;5008303;28;20041;-72
2023/06/10 07:12:53;;;;;;;16.65;6.45;;;;;;;20.88;100.00;101155.91;5006553;28;20410;-69
2023/06/10 07:15:19;;;;;;;13.85;6.53;;;;;;;20.93;100.00;101155.28;5009921;28;20055;-69
2023/06/10 07:17:46;;;;;;;13.38;6.13;;;;;;;20.97;100.00;101164.38;5017365;28;20308;-72
2023/06/10 07:20:14;;;;;;;15.23;6.63;;;;;;;21.06;100.00;101149.41;5008752;28;20057;-74
2023/06/10 07:22:42;;;;;;;14.25;6.43;;;;;;;21.12;100.00;101156.75;5011102;28;20074;-72
2023/06/10 07:25:09;;;;;;;15.70;6.15;;;;;;;21.16;100.00;101157.34;5008714;28;20080;-72
2023/06/10 07:27:37;;;;;;;18.10;6.45;;;;;;;21.30;100.00;101162.28;5011312;28;20053;-70
2023/06/10 07:30:06;;;;;;;17.60;7.28;;;;;;;21.42;100.00;101160.47;5010084;28;20240;-71
2023/06/10 07:32:33;;;;;;;12.85;5.57;;;;;;;21.48;100.00;101153.69;5011153;28;20054;-71
2023/06/10 07:35:00;;;;;;;15.57;6.55;;;;;;;21.56;100.00;101149.22;5008902;28;20050;-72
2023/06/10 07:37:27;;;;;;;14.27;5.55;;;;;;;21.66;100.00;101149.97;5007243;28;20132;-71
2023/06/10 07:39:54;;;;;;;13.50;6.38;;;;;;;21.65;100.00;101156.88;5009158;28;20050;-71
2023/06/10 07:42:20;;;;;;;15.30;6.03;;;;;;;21.70;100.00;101154.16;5017065;28;20520;-70
2023/06/10 07:44:47;;;;;;;12.38;5.75;;;;;;;21.79;100.00;101148.44;5004191;28;20078;-71
2023/06/10 07:47:13;;;;;;;17.45;7.85;;;;;;;21.82;100.00;101144.66;5005776;28;20065;-70
2023/06/10 07:49:41;;;;;;;14.00;5.97;;;;;;;21.97;100.00;101150.31;5018099;28;20095;-72
2023/06/10 07:52:08;;;;;;;15.27;6.20;;;;;;;22.08;100.00;101147.72;5011235;28;20083;-68
2023/06/10 07:54:35;;;;;;;16.02;5.68;;;;;;;22.16;100.00;101146.03;5023652;28;20080;-71
2023/06/10 07:57:01;;;;;;;15.35;6.07;;;;;;;22.29;100.00;101146.53;5013980;28;20088;-71
2023/06/10 07:59:28;;;;;;;12.50;5.85;;;;;;;22.36;100.00;101149.00;5019551;28;20081;-71
2023/06/10 08:01:54;;;;;;;14.68;6.32;;;;;;;22.42;100.00;101147.06;5013616;28;20058;-72
2023/06/10 08:04:21;;;;;;;12.50;5.70;;;;;;;22.46;100.00;101141.19;5010148;28;20130;-71
2023/06/10 08:06:48;;;;;;;12.90;5.93;;;;;;;22.50;100.00;101147.41;5011959;28;20045;-71
2023/06/10 08:09:14;;;;;;;13.57;5.72;;;;;;;22.58;100.00;101148.59;5008651;28;20177;-77
2023/06/10 08:11:41;;;;;;;13.48;5.28;;;;;;;22.65;100.00;101149.00;5014984;28;20072;-73
2023/06/10 08:14:08;;;;;;;13.88;6.00;;;;;;;22.71;100.00;101157.59;5007538;28;20084;-75
2023/06/10 08:16:34;;;;;;;13.32;6.32;;;;;;;22.73;100.00;101152.97;5011248;28;20516;-74
2023/06/10 08:19:01;;;;;;;14.98;6.15;;;;;;;22.78;100.00;101151.50;5015539;28;20564;-72
2023/06/10 08:21:28;;;;;;;10.48;5.57;;;;;;;22.83;100.00;101157.25;5020890;28;20057;-73
2023/06/10 08:23:55;;;;;;;13.35;5.63;;;;;;;22.93;100.00;101164.38;5015112;28;20049;-72
2023/06/10 08:26:22;;;;;;;12.73;5.45;;;;;;;23.00;100.00;101160.38;5007418;28;20061;-72
2023/06/10 08:28:48;;;;;;;16.80;6.03;;;;;;;23.07;100.00;101162.78;5008282;28;20096;-71
2023/06/10 08:31:15;;;;;;;11.27;5.40;;;;;;;23.11;100.00;101152.81;5006997;28;20053;-73
2023/06/10 08:33:42;;;;;;;12.85;5.53;;;;;;;23.24;100.00;101158.13;5007972;28;20087;-70
2023/06/10 08:36:08;;;;;;;12.40;5.80;;;;;;;23.38;100.00;101151.63;5010361;28;20058;-72
2023/06/10 08:38:35;;;;;;;11.73;5.82;;;;;;;23.38;100.00;101158.09;5002182;28;20581;-73
2023/06/10 08:41:05;;;;;;;18.30;6.63;;;;;;;23.50;100.00;101150.50;5010521;28;20077;-71
2023/06/10 08:43:37;;;;;;;14.65;6.00;;;;;;;23.56;100.00;101154.97;5014896;28;20766;-70
2023/06/10 08:46:04;;;;;;;14.55;6.00;;;;;;;23.68;100.00;101155.91;5007698;28;20773;-71
2023/06/10 08:48:31;;;;;;;15.00;5.88;;;;;;;23.77;100.00;101158.59;5015644;28;20132;-71
2023/06/10 08:50:58;;;;;;;14.52;6.38;;;;;;;23.88;100.00;101153.03;5006317;28;20136;-71
2023/06/10 08:53:27;;;;;;;13.85;6.38;;;;;;;24.03;100.00;101160.19;5003984;28;20057;-69
2023/06/10 08:55:58;;;;;;;13.23;5.32;;;;;;;24.15;100.00;101158.25;5013145;28;20050;-71
2023/06/10 08:58:26;;;;;;;14.63;5.72;;;;;;;24.36;100.00;101154.88;5009270;28;20134;-69
2023/06/10 09:00:54;;;;;;;12.68;5.72;;;;;;;24.49;100.00;101154.47;5007683;28;20743;-69
2023/06/10 09:03:21;;;;;;;13.57;6.25;;;;;;;24.57;100.00;101163.31;5007168;28;20143;-72
2023/06/10 09:05:48;;;;;;;15.10;5.72;;;;;;;24.63;100.00;101152.78;5020336;28;20827;-71
2023/06/10 09:08:15;;;;;;;12.60;6.22;;;;;;;24.64;100.00;101149.44;5007119;28;20050;-69
2023/06/10 09:10:42;;;;;;;13.43;6.53;;;;;;;24.67;100.00;101156.94;5007962;28;20432;-68
2023/06/10 09:13:08;;;;;;;17.63;6.30;;;;;;;24.74;100.00;101158.53;5007776;28;20104;-69
2023/06/10 09:15:35;;;;;;;13.98;6.32;;;;;;;24.79;100.00;101152.91;5010635;28;20504;-72
2023/06/10 09:18:02;;;;;;;14.02;5.30;;;;;;;24.91;100.00;101150.94;5008909;28;20104;-71
2023/06/10 09:20:28;;;;;;;12.68;5.95;;;;;;;25.05;100.00;101145.09;5018704;28;20044;-69
2023/06/10 09:22:55;;;;;;;13.02;6.15;;;;;;;25.20;100.00;101147.75;5004645;28;20038;-72
2023/06/10 09:25:35;;;;;;;15.13;6.03;;;;;;;25.30;100.00;101144.19;5007467;28;20054;-72
2023/06/10 09:28:03;;;;;;;12.32;6.15;;;;;;;25.38;100.00;101145.25;5005738;28;20129;-72
2023/06/10 09:30:31;;;;;;;17.02;6.47;;;;;;;25.44;100.00;101140.41;5012267;28;20420;-72
2023/06/10 09:33:03;;;;;;;12.20;6.32;;;;;;;25.46;100.00;101146.38;5014147;28;20046;-71
2023/06/10 09:35:30;;;;;;;10.95;5.47;;;;;;;25.52;100.00;101144.31;5004427;28;20107;-70
2023/06/10 09:37:59;;;;;;;14.35;5.88;;;;;;;25.64;100.00;101145.13;5013494;28;20136;-71
2023/06/10 09:40:27;;;;;;;10.70;5.43;;;;;;;25.65;100.00;101147.47;5006251;28;20129;-70
2023/06/10 09:42:55;;;;;;;10.73;5.38;;;;;;;25.75;100.00;101143.13;5007777;28;20050;-69
2023/06/10 09:45:22;;;;;;;15.15;6.40;;;;;;;25.79;100.00;101143.63;5009213;28;20458;-73
2023/06/10 09:47:53;;;;;;;12.63;5.90;;;;;;;25.85;100.00;101143.69;5014209;28;20049;-73
2023/06/10 09:50:20;;;;;;;13.73;6.00;;;;;;;25.96;100.00;101141.59;5007144;28;20045;-71
2023/06/10 09:52:48;;;;;;;14.65;5.97;;;;;;;26.07;100.00;101144.53;5005750;28;20054;-70
2023/06/10 09:55:15;;;;;;;12.90;6.18;;;;;;;26.16;99.08;101135.72;5020689;28;20050;-70
2023/06/10 09:57:44;;;;;;;11.98;6.07;;;;;;;26.21;98.96;101139.88;5007796;28;20103;-70
2023/06/10 10:00:12;;;;;;;12.90;5.95;;;;;;;26.30;99.62;101137.56;5005618;28;20056;-71
2023/06/10 10:02:49;;;;;;;13.00;6.10;;;;;;;26.36;99.65;101137.56;5003119;28;20591;-70
2023/06/10 10:05:18;;;;;;;16.05;6.43;;;;;;;26.43;99.21;101139.91;4991668;28;20058;-70
2023/06/10 10:07:46;;;;;;;11.38;5.60;;;;;;;26.55;95.51;101135.75;5014770;28;20049;-71
2023/06/10 10:10:14;;;;;;;12.88;5.90;;;;;;;26.63;95.92;101134.75;5001627;28;20596;-70
2023/06/10 10:12:42;;;;;;;12.40;5.53;;;;;;;26.73;95.38;101133.19;5011056;28;20059;-69
2023/06/10 10:15:10;;;;;;;13.07;5.88;;;;;;;26.88;94.61;101137.81;5006378;28;20064;-70
2023/06/10 10:18:06;;;;;;;12.52;6.32;;;;;;;26.98;94.25;101130.53;5009497;28;20050;-72
2023/06/10 10:20:37;;;;;;;14.93;6.60;;;;;;;27.11;92.85;101128.72;5014360;28;20049;-70
2023/06/10 10:23:04;;;;;;;12.98;6.13;;;;;;;27.26;92.70;101128.44;4997513;28;20133;-70
2023/06/10 10:25:42;;;;;;;13.30;5.65;;;;;;;27.38;93.06;101133.59;5016471;28;20476;-72
2023/06/10 10:28:11;;;;;;;9.13;5.35;;;;;;;27.45;91.50;101126.53;5008517;28;20050;-69
2023/06/10 10:30:51;;;;;;;13.13;5.70;;;;;;;27.50;90.29;101129.38;5008277;28;20673;-72
2023/06/10 10:33:22;;;;;;;11.38;6.00;;;;;;;27.61;91.95;101122.84;5009867;28;20112;-71
2023/06/10 10:35:50;;;;;;;16.08;6.03;;;;;;;27.67;91.72;101123.59;5008083;28;20099;-67
2023/06/10 10:38:17;;;;;;;12.95;5.93;;;;;;;27.56;89.52;101115.06;5009895;28;20054;-70
2023/06/10 10:40:45;;;;;;;14.40;6.07;;;;;;;27.76;90.85;101126.16;5007718;28;20112;-70
2023/06/10 10:43:13;;;;;;;14.13;6.15;;;;;;;27.87;88.60;101126.13;5004900;28;22148;-71
2023/06/10 10:45:39;;;;;;;13.63;6.28;;;;;;;27.90;88.10;101122.16;5009696;28;20457;-70
2023/06/10 10:48:11;;;;;;;10.93;5.82;;;;;;;28.06;88.55;101118.44;5018524;28;20049;-71
2023/06/10 10:50:40;;;;;;;12.77;6.05;;;;;;;28.09;86.94;101117.38;5004078;28;20053;-72
2023/06/10 10:53:07;;;;;;;11.52;6.10;;;;;;;28.23;86.53;101122.75;5012487;28;20053;-70
2023/06/10 10:55:34;;;;;;;12.57;5.93;;;;;;;28.40;86.93;101114.84;5015574;28;20042;-70
2023/06/10 10:58:06;;;;;;;10.82;5.47;;;;;;;28.40;83.69;101111.97;5009443;28;20050;-72
2023/06/10 11:00:35;;;;;;;13.13;5.88;;;;;;;28.54;82.78;101118.59;5017478;28;20054;-73
2023/06/10 11:03:07;;;;;;;15.27;5.78;;;;;;;28.68;81.90;101123.16;5007356;28;20428;-68
2023/06/10 11:05:53;;;;;;;13.07;6.43;;;;;;;28.85;85.13;101118.84;5011006;28;20127;-72
2023/06/10 11:08:43;;;;;;;11.40;5.95;;;;;;;29.02;81.74;101112.19;5012186;28;20057;-70